Terminal Aerodrome Forecast
Issued by NWS

Current Version | Previous Version | Text Only | Print | Product List | Glossary Off
Versions: 1 2 3 4 5 6 7 8 9 10 11 12 13 14 15 16 17 18 19 20 21 22 23 24 25 26 27 28 29 30 31 32 33 34 35 36 37 38 39 40 41

000
FTUS41 KRNK 270621 AAA
TAFLWB
TAF AMD
KLWB 270621Z 2706/2806 02005KT 2SM BR SCT001
      TEMPO 2706/2708 1/2SM FG BKN001
     FM270800 00000KT 1/4SM FG OVC001
     FM271330 13004KT P6SM SCT045
     FM271500 11006KT P6SM SCT045 BKN120
     FM280000 09004KT P6SM BKN250
     FM280300 00000KT 4SM BR SCT250=

USA.gov is the U.S. government's official web portal to all federal, state and local government web resources and services.